createdAt,value
2018-09-05T00:01:31.094Z,19.70
2018-09-05T00:05:25.167Z,19.60
2018-09-05T00:09:19.155Z,19.50
2018-09-05T00:13:13.148Z,19.50
2018-09-05T00:17:07.174Z,19.50
2018-09-05T00:21:01.099Z,19.40
2018-09-05T00:24:55.130Z,19.40
2018-09-05T00:28:49.124Z,19.30
2018-09-05T00:32:43.038Z,19.30
2018-09-05T00:36:36.994Z,19.40
2018-09-05T00:40:31.047Z,19.40
2018-09-05T00:44:25.991Z,19.40
2018-09-05T00:48:19.915Z,19.40
2018-09-05T00:52:13.953Z,19.30
2018-09-05T00:56:08.058Z,19.30
2018-09-05T01:00:02.023Z,19.40
2018-09-05T01:03:55.987Z,19.40
2018-09-05T01:07:50.037Z,19.40
2018-09-05T01:11:44.010Z,19.40
2018-09-05T01:15:38.019Z,19.40
2018-09-05T01:19:31.994Z,19.40
2018-09-05T01:23:25.958Z,19.30
2018-09-05T01:27:19.945Z,19.30
2018-09-05T01:31:13.994Z,19.30
2018-09-05T01:35:07.968Z,19.30
2018-09-05T01:39:01.919Z,19.30
2018-09-05T01:42:56.801Z,19.30
2018-09-05T01:46:50.782Z,19.30
2018-09-05T01:50:45.036Z,19.20
2018-09-05T01:54:39.066Z,19.20
2018-09-05T01:58:33.314Z,19.20
2018-09-05T02:02:27.326Z,19.20
2018-09-05T02:06:21.418Z,19.20
2018-09-05T02:10:15.464Z,19.20
2018-09-05T02:14:09.849Z,19.20
2018-09-05T02:18:03.960Z,19.20
2018-09-05T02:21:58.587Z,19.20
2018-09-05T02:25:52.531Z,19.20
2018-09-05T02:29:46.531Z,19.20
2018-09-05T02:33:40.571Z,19.20
2018-09-05T02:37:34.537Z,19.20
2018-09-05T02:41:28.489Z,19.20
2018-09-05T02:45:22.546Z,19.10
2018-09-05T02:49:16.643Z,19.10
2018-09-05T02:53:10.650Z,19.10
2018-09-05T02:57:04.616Z,19.10
2018-09-05T03:00:58.644Z,19.10
2018-09-05T03:05:27.068Z,19.10
2018-09-05T03:09:21.143Z,19.20
2018-09-05T03:13:15.142Z,19.20
2018-09-05T03:17:09.184Z,19.10
2018-09-05T03:21:03.274Z,19.10
2018-09-05T03:24:57.363Z,19.20
2018-09-05T03:28:51.346Z,19.20
2018-09-05T03:32:45.446Z,19.20
2018-09-05T03:36:39.462Z,19.20
2018-09-05T03:40:33.464Z,19.20
2018-09-05T03:44:27.432Z,19.20
2018-09-05T03:48:21.518Z,19.20
2018-09-05T03:52:15.589Z,19.10
2018-09-05T03:56:09.583Z,19.10
2018-09-05T04:00:04.026Z,19.10
2018-09-05T04:03:58.002Z,19.20
2018-09-05T04:07:51.952Z,19.20
2018-09-05T04:11:45.939Z,19.20
2018-09-05T04:15:39.932Z,19.20
2018-09-05T04:19:33.878Z,19.20
2018-09-05T04:23:32.107Z,19.20
2018-09-05T04:27:26.047Z,19.10
2018-09-05T04:31:20.010Z,19.10
2018-09-05T04:35:14.040Z,19.10
2018-09-05T04:39:09.218Z,19.00
2018-09-05T04:43:03.446Z,19.00
2018-09-05T04:46:57.436Z,19.00
2018-09-05T04:50:51.418Z,19.00
2018-09-05T04:54:45.487Z,19.10
2018-09-05T04:58:39.718Z,19.10
2018-09-05T05:02:33.708Z,19.00
2018-09-05T05:06:27.699Z,19.00
2018-09-05T05:10:22.198Z,19.00
2018-09-05T05:14:16.610Z,19.10
2018-09-05T05:18:10.590Z,19.20
2018-09-05T05:22:05.292Z,19.30
2018-09-05T05:25:59.257Z,19.40
2018-09-05T05:29:53.231Z,19.50
2018-09-05T05:33:47.224Z,19.50
2018-09-05T05:37:41.351Z,19.60
2018-09-05T05:41:35.451Z,19.70
2018-09-05T05:45:29.826Z,19.80
2018-09-05T05:49:23.807Z,19.90
2018-09-05T05:53:17.824Z,20.00
2018-09-05T05:57:11.953Z,20.10
2018-09-05T06:01:05.956Z,20.20
2018-09-05T06:04:59.959Z,20.30
2018-09-05T06:08:54.011Z,20.40
2018-09-05T06:12:48.137Z,20.50
2018-09-05T06:16:43.279Z,20.50
2018-09-05T06:20:37.346Z,20.60
2018-09-05T06:24:32.058Z,20.60
2018-09-05T06:28:26.237Z,20.60
2018-09-05T06:32:20.810Z,20.70
2018-09-05T06:36:14.895Z,20.80
2018-09-05T06:40:09.063Z,20.80
2018-09-05T06:44:03.314Z,20.90
2018-09-05T06:47:57.287Z,20.90
2018-09-05T06:51:51.688Z,21.00
2018-09-05T06:55:45.710Z,21.10
2018-09-05T06:59:39.790Z,21.20
2018-09-05T07:03:33.867Z,21.10
2018-09-05T07:07:28.264Z,21.20
2018-09-05T07:11:22.311Z,21.20
2018-09-05T07:15:16.300Z,21.20
2018-09-05T07:19:11.340Z,21.30
2018-09-05T07:23:05.667Z,21.50
2018-09-05T07:26:59.671Z,21.70
2018-09-05T07:30:53.769Z,21.80
2018-09-05T07:34:47.811Z,21.90
2018-09-05T07:38:41.918Z,21.80
2018-09-05T07:42:35.931Z,21.90
2018-09-05T07:46:29.942Z,22.10
2018-09-05T07:50:24.063Z,22.30
2018-09-05T07:54:18.041Z,22.40
2018-09-05T07:58:12.308Z,22.60
2018-09-05T08:02:06.350Z,22.70
2018-09-05T08:06:00.417Z,23.00
2018-09-05T08:09:54.381Z,23.40
2018-09-05T08:13:48.402Z,23.60
2018-09-05T08:17:42.538Z,23.90
2018-09-05T08:21:36.556Z,24.20
2018-09-05T08:25:30.673Z,24.30
2018-09-05T08:29:24.672Z,24.30
2018-09-05T08:33:19.001Z,24.30
2018-09-05T08:37:14.112Z,24.40
2018-09-05T08:41:08.094Z,24.60
2018-09-05T08:45:02.894Z,24.80
2018-09-05T08:48:56.655Z,24.90
2018-09-05T08:52:50.722Z,25.00
2018-09-05T08:56:44.687Z,25.20
2018-09-05T09:00:48.182Z,25.20
2018-09-05T09:04:42.307Z,25.20
2018-09-05T09:08:36.222Z,25.20
2018-09-05T09:12:30.247Z,25.00
2018-09-05T09:16:24.335Z,25.00
2018-09-05T09:20:18.445Z,25.00
2018-09-05T09:24:12.377Z,25.00
2018-09-05T09:28:06.415Z,25.20
2018-09-05T09:32:00.344Z,25.60
2018-09-05T09:35:54.378Z,26.00
2018-09-05T09:39:48.395Z,26.10
2018-09-05T09:43:42.408Z,26.20
2018-09-05T09:47:36.553Z,26.20
2018-09-05T09:51:30.999Z,26.30
2018-09-05T09:55:26.569Z,26.30
2018-09-05T09:59:20.626Z,26.40
2018-09-05T10:03:20.087Z,26.70
2018-09-05T10:07:19.440Z,26.80
2018-09-05T10:11:19.339Z,26.60
2018-09-05T10:15:17.803Z,26.20
2018-09-05T10:19:12.516Z,25.90
2018-09-05T10:23:06.567Z,25.60
2018-09-05T10:27:00.556Z,25.60
2018-09-05T10:30:54.936Z,25.90
2018-09-05T10:34:48.905Z,26.40
2018-09-05T10:38:42.883Z,26.70
2018-09-05T10:42:36.833Z,26.80
2018-09-05T10:46:30.842Z,26.80
2018-09-05T10:50:25.038Z,26.50
2018-09-05T10:54:19.094Z,26.20
2018-09-05T10:58:13.142Z,26.10
2018-09-05T11:02:07.186Z,26.20
2018-09-05T11:06:01.181Z,26.30
2018-09-05T11:09:55.161Z,26.50
2018-09-05T11:13:49.332Z,26.60
2018-09-05T11:17:43.363Z,26.80
2018-09-05T11:21:38.782Z,26.90
2018-09-05T11:25:32.714Z,26.90
2018-09-05T11:29:26.719Z,27.10
2018-09-05T11:33:20.708Z,27.40
2018-09-05T11:41:08.951Z,27.80
2018-09-05T11:45:03.105Z,28.10
2018-09-05T11:48:57.174Z,28.00
2018-09-05T11:52:51.170Z,27.80
2018-09-05T11:56:45.167Z,28.00
2018-09-05T12:00:39.178Z,28.40
2018-09-05T12:04:33.334Z,28.70
2018-09-05T12:08:27.431Z,28.80
2018-09-05T12:16:15.294Z,29.10
2018-09-05T12:20:09.401Z,29.10
2018-09-05T12:24:03.572Z,29.10
2018-09-05T12:27:57.656Z,28.80
2018-09-05T12:31:51.611Z,28.70
2018-09-05T12:35:45.774Z,28.80
2018-09-05T12:39:40.086Z,29.00
2018-09-05T12:43:34.226Z,29.10
2018-09-05T12:47:28.164Z,29.10
2018-09-05T12:51:22.185Z,29.20
2018-09-05T12:55:16.109Z,28.90
2018-09-05T12:59:10.156Z,29.00
2018-09-05T13:03:04.088Z,29.20
2018-09-05T13:06:58.154Z,29.00
2018-09-05T13:10:52.114Z,28.70
2018-09-05T13:14:46.214Z,28.90
2018-09-05T13:18:40.273Z,28.90
2018-09-05T13:22:34.367Z,29.00
2018-09-05T13:26:28.295Z,29.10
2018-09-05T13:30:22.556Z,29.10
2018-09-05T13:34:16.661Z,29.00
2018-09-05T13:38:10.659Z,28.80
2018-09-05T13:42:04.797Z,28.80
2018-09-05T13:45:58.797Z,28.80
2018-09-05T13:49:52.862Z,28.90
2018-09-05T13:53:46.926Z,29.10
2018-09-05T13:57:40.884Z,29.30
2018-09-05T14:01:34.882Z,29.20
2018-09-05T14:05:28.907Z,29.30
2018-09-05T14:09:22.918Z,29.30
2018-09-05T14:13:17.025Z,29.20
2018-09-05T14:17:11.039Z,28.90
2018-09-05T14:21:05.022Z,28.50
2018-09-05T14:24:59.059Z,28.40
2018-09-05T14:28:53.039Z,28.50
2018-09-05T14:32:47.076Z,28.70
2018-09-05T14:36:41.370Z,28.90
2018-09-05T14:40:35.319Z,29.00
2018-09-05T14:44:29.326Z,28.90
2018-09-05T14:48:23.376Z,28.70
2018-09-05T14:52:17.355Z,28.50
2018-09-05T14:56:11.452Z,28.40
2018-09-05T15:00:05.692Z,28.40
2018-09-05T15:03:59.747Z,28.40
2018-09-05T15:07:53.750Z,28.30
2018-09-05T15:11:47.725Z,28.20
2018-09-05T15:15:41.766Z,28.10
2018-09-05T15:19:35.858Z,28.00
2018-09-05T15:23:29.967Z,27.90
2018-09-05T15:27:24.038Z,27.80
2018-09-05T15:31:18.044Z,27.70
2018-09-05T15:35:12.057Z,27.70
2018-09-05T15:39:08.427Z,27.60
2018-09-05T15:43:03.307Z,27.70
2018-09-05T15:46:57.460Z,27.80
2018-09-05T15:50:51.337Z,27.80
2018-09-05T15:54:45.336Z,27.80
2018-09-05T15:58:39.341Z,27.80
2018-09-05T16:02:33.487Z,27.90
2018-09-05T16:06:27.463Z,27.90
2018-09-05T16:10:21.577Z,28.00
2018-09-05T16:14:15.584Z,28.00
2018-09-05T16:18:09.590Z,28.10
2018-09-05T16:22:03.675Z,28.20
2018-09-05T16:25:57.691Z,28.20
2018-09-05T16:29:51.761Z,28.00
2018-09-05T16:33:45.747Z,27.80
2018-09-05T16:37:39.763Z,27.70
2018-09-05T16:41:33.763Z,27.60
2018-09-05T16:45:27.745Z,27.60
2018-09-05T16:49:21.743Z,27.50
2018-09-05T16:53:15.826Z,27.40
2018-09-05T16:57:09.925Z,27.20
2018-09-05T17:01:04.191Z,27.00
2018-09-05T17:04:58.155Z,26.80
2018-09-05T17:08:52.112Z,26.60
2018-09-05T17:12:46.214Z,26.50
2018-09-05T17:16:40.199Z,26.30
2018-09-05T17:20:37.100Z,26.20
2018-09-05T17:24:31.223Z,26.20
2018-09-05T17:28:25.672Z,26.00
2018-09-05T17:32:19.709Z,25.90
2018-09-05T17:36:13.971Z,25.80
2018-09-05T17:40:08.504Z,25.70
2018-09-05T17:44:02.511Z,25.50
2018-09-05T17:47:56.530Z,25.40
2018-09-05T17:51:50.530Z,25.30
2018-09-05T17:55:44.494Z,25.20
2018-09-05T17:59:38.563Z,25.20
2018-09-05T18:03:32.543Z,25.20
2018-09-05T18:07:26.755Z,25.10
2018-09-05T18:11:20.796Z,25.00
2018-09-05T18:15:14.826Z,25.00
2018-09-05T18:19:08.856Z,24.90
2018-09-05T18:23:02.853Z,24.80
2018-09-05T18:26:56.895Z,24.70
2018-09-05T18:30:50.924Z,24.70
2018-09-05T18:34:45.871Z,24.60
2018-09-05T18:38:40.417Z,24.50
2018-09-05T18:42:34.475Z,24.40
2018-09-05T18:46:28.523Z,24.40
2018-09-05T18:50:22.790Z,24.40
2018-09-05T18:54:16.804Z,24.30
2018-09-05T18:58:10.932Z,24.30
2018-09-05T19:02:04.976Z,24.20
2018-09-05T19:05:58.950Z,24.10
2018-09-05T19:09:52.904Z,24.10
2018-09-05T19:13:46.903Z,24.00
2018-09-05T19:17:41.011Z,23.80
2018-09-05T19:21:35.005Z,23.70
2018-09-05T19:25:29.043Z,23.50
2018-09-05T19:29:23.030Z,23.30
2018-09-05T19:33:16.950Z,23.20
2018-09-05T19:37:11.840Z,23.20
2018-09-05T19:41:05.780Z,23.00
2018-09-05T19:44:59.942Z,22.80
2018-09-05T19:48:54.057Z,22.70
2018-09-05T19:52:48.104Z,22.70
2018-09-05T19:56:42.063Z,22.60
2018-09-05T20:00:35.974Z,22.50
2018-09-05T20:04:29.983Z,22.40
2018-09-05T20:08:24.001Z,22.30
2018-09-05T20:12:17.976Z,22.30
2018-09-05T20:16:12.001Z,22.20
2018-09-05T20:20:06.063Z,22.10
2018-09-05T20:24:00.058Z,21.90
2018-09-05T20:27:54.082Z,21.90
2018-09-05T20:31:48.130Z,21.80
2018-09-05T20:35:42.215Z,21.80
2018-09-05T20:39:36.598Z,21.80
2018-09-05T20:43:30.576Z,21.80
2018-09-05T20:47:24.480Z,22.10
2018-09-05T20:51:18.595Z,22.20
2018-09-05T20:55:12.524Z,22.20
2018-09-05T20:59:06.765Z,22.20
2018-09-05T21:03:00.807Z,22.10
2018-09-05T21:06:54.922Z,22.00
2018-09-05T21:10:48.834Z,21.90
2018-09-05T21:14:42.852Z,22.00
2018-09-05T21:18:37.871Z,22.10
2018-09-05T21:22:32.438Z,22.20
2018-09-05T21:26:26.454Z,22.20
2018-09-05T21:30:20.606Z,22.20
2018-09-05T21:34:14.540Z,22.20
2018-09-05T21:38:08.634Z,22.00
2018-09-05T21:42:02.621Z,22.00
2018-09-05T21:45:56.643Z,21.90
2018-09-05T21:49:50.672Z,21.90
2018-09-05T21:53:44.615Z,21.90
2018-09-05T21:57:38.803Z,21.80
2018-09-05T22:01:32.896Z,21.80
2018-09-05T22:05:27.064Z,21.70
2018-09-05T22:09:21.045Z,21.70
2018-09-05T22:13:15.002Z,21.60
2018-09-05T22:17:08.878Z,21.60
2018-09-05T22:21:03.071Z,21.70
2018-09-05T22:24:57.091Z,21.60
2018-09-05T22:28:51.094Z,21.60
2018-09-05T22:32:45.102Z,21.60
2018-09-05T22:36:39.106Z,21.60
2018-09-05T22:40:37.286Z,21.60
2018-09-05T22:44:43.307Z,21.60
2018-09-05T22:49:24.628Z,21.60
2018-09-05T22:53:35.730Z,21.70
2018-09-05T22:57:46.605Z,21.60
2018-09-05T23:04:28.996Z,21.60
2018-09-05T23:08:33.131Z,21.60
2018-09-05T23:12:38.427Z,21.50
2018-09-05T23:17:42.467Z,21.50
2018-09-05T23:21:36.487Z,21.50
2018-09-05T23:25:30.486Z,21.40
2018-09-05T23:29:24.458Z,21.40
2018-09-05T23:33:18.404Z,21.30
2018-09-05T23:37:12.535Z,21.30
2018-09-05T23:41:06.558Z,21.40
2018-09-05T23:45:00.543Z,21.30
2018-09-05T23:48:54.583Z,21.40
2018-09-05T23:52:48.631Z,21.30
2018-09-05T23:56:42.588Z,21.20
